createdAt,value
2017-09-29T00:01:43.359Z,102564.63
2017-09-29T00:04:11.834Z,102563.37
2017-09-29T00:06:40.281Z,102564.23
2017-09-29T00:09:09.522Z,102556.39
2017-09-29T00:11:37.974Z,102558.13
2017-09-29T00:14:06.443Z,102560.33
2017-09-29T00:16:35.656Z,102546.42
2017-09-29T00:19:04.134Z,102549.44
2017-09-29T00:21:32.586Z,102545.92
2017-09-29T00:24:01.061Z,102546.84
2017-09-29T00:26:29.544Z,102545.54
2017-09-29T00:28:57.977Z,102538.18
2017-09-29T00:31:26.450Z,102536.88
2017-09-29T00:33:54.963Z,102538.22
2017-09-29T00:36:23.437Z,102532.63
2017-09-29T00:38:51.931Z,102531.33
2017-09-29T00:41:20.498Z,102527.39
2017-09-29T00:43:48.937Z,102532.15
2017-09-29T00:46:18.286Z,102527.39
2017-09-29T00:48:46.734Z,102529.64
2017-09-29T00:51:15.971Z,102527.47
2017-09-29T00:53:44.412Z,102529.20
2017-09-29T00:56:13.751Z,102525.73
2017-09-29T00:58:42.198Z,102518.80
2017-09-29T01:01:14.702Z,102518.89
2017-09-29T01:03:43.147Z,102518.47
2017-09-29T01:06:12.382Z,102518.85
2017-09-29T01:08:40.825Z,102513.69
2017-09-29T01:11:10.042Z,102516.73
2017-09-29T01:13:38.518Z,102522.84
2017-09-29T01:16:07.720Z,102521.11
2017-09-29T01:18:36.955Z,102519.77
2017-09-29T01:21:05.421Z,102521.06
2017-09-29T01:23:33.890Z,102521.50
2017-09-29T01:26:02.333Z,102523.72
2017-09-29T01:28:30.868Z,102519.38
2017-09-29T01:30:59.309Z,102525.92
2017-09-29T01:33:28.547Z,102516.81
2017-09-29T01:35:57.043Z,102522.03
2017-09-29T01:38:25.618Z,102519.51
2017-09-29T01:40:54.064Z,102515.61
2017-09-29T01:43:23.403Z,102515.70
2017-09-29T01:45:51.881Z,102511.77
2017-09-29T01:48:20.358Z,102520.90
2017-09-29T01:50:48.796Z,102515.70
2017-09-29T01:53:17.324Z,102517.92
2017-09-29T01:55:45.784Z,102513.58
2017-09-29T01:58:15.019Z,102511.85
2017-09-29T02:00:43.498Z,102514.10
2017-09-29T02:03:11.980Z,102508.05
2017-09-29T02:05:40.449Z,102509.39
2017-09-29T02:08:08.898Z,102508.95
2017-09-29T02:10:38.246Z,102512.84
2017-09-29T02:13:06.685Z,102508.16
2017-09-29T02:15:36.009Z,102505.61
2017-09-29T02:18:04.452Z,102509.55
2017-09-29T02:20:32.987Z,102507.39
2017-09-29T02:23:01.434Z,102512.63
2017-09-29T02:25:30.667Z,102503.96
2017-09-29T02:27:59.105Z,102494.04
2017-09-29T02:30:28.338Z,102496.67
2017-09-29T02:32:56.838Z,102488.45
2017-09-29T02:35:25.421Z,102484.55
2017-09-29T02:37:53.866Z,102485.97
2017-09-29T02:40:23.078Z,102493.80
2017-09-29T02:42:51.545Z,102491.20
2017-09-29T02:45:20.748Z,102486.05
2017-09-29T02:47:50.118Z,102482.16
2017-09-29T02:50:18.567Z,102479.20
2017-09-29T02:52:47.202Z,102478.33
2017-09-29T02:55:16.410Z,102486.95
2017-09-29T02:57:49.418Z,102486.09
2017-09-29T03:00:18.965Z,102483.48
2017-09-29T03:02:49.546Z,102486.52
2017-09-29T03:05:23.622Z,102488.28
2017-09-29T03:07:52.089Z,102482.66
2017-09-29T03:10:20.537Z,102481.83
2017-09-29T03:12:49.013Z,102479.67
2017-09-29T03:15:17.517Z,102478.84
2017-09-29T03:17:46.093Z,102482.27
2017-09-29T03:20:14.553Z,102480.10
2017-09-29T03:22:43.782Z,102480.57
2017-09-29T03:25:12.254Z,102474.55
2017-09-29T03:27:40.697Z,102476.31
2017-09-29T03:30:09.922Z,102473.72
2017-09-29T03:32:38.426Z,102466.39
2017-09-29T03:35:06.894Z,102474.66
2017-09-29T03:37:35.391Z,102470.73
2017-09-29T03:40:03.858Z,102463.33
2017-09-29T03:42:32.302Z,102471.63
2017-09-29T03:45:00.837Z,102470.33
2017-09-29T03:47:29.282Z,102481.55
2017-09-29T03:49:59.434Z,102483.71
2017-09-29T03:52:30.244Z,102484.94
2017-09-29T03:55:00.657Z,102479.85
2017-09-29T03:57:34.489Z,102478.13
2017-09-29T04:00:02.953Z,102485.08
2017-09-29T04:02:32.170Z,102488.55
2017-09-29T04:05:00.776Z,102484.22
2017-09-29T04:07:29.218Z,102492.80
2017-09-29T04:09:58.426Z,102486.70
2017-09-29T04:12:27.749Z,102486.27
2017-09-29T04:14:56.243Z,102484.58
2017-09-29T04:17:24.705Z,102490.20
2017-09-29T04:19:53.149Z,102490.64
2017-09-29T04:22:21.612Z,102497.13
2017-09-29T04:24:50.054Z,102491.11
2017-09-29T04:27:18.521Z,102497.56
2017-09-29T04:29:46.960Z,102498.00
2017-09-29T04:32:15.434Z,102497.13
2017-09-29T04:34:43.882Z,102495.83
2017-09-29T04:37:12.349Z,102497.59
2017-09-29T04:39:40.793Z,102499.44
2017-09-29T04:42:09.290Z,102497.23
2017-09-29T04:44:38.938Z,102499.36
2017-09-29T04:47:07.386Z,102496.37
2017-09-29T04:49:36.622Z,102493.02
2017-09-29T04:52:05.065Z,102503.80
2017-09-29T04:54:34.300Z,102497.37
2017-09-29T04:57:02.790Z,102495.67
2017-09-29T04:59:31.490Z,102502.16
2017-09-29T05:01:59.959Z,102494.74
2017-09-29T05:04:28.436Z,102493.81
2017-09-29T05:06:56.881Z,102491.21
2017-09-29T05:09:26.123Z,102496.01
2017-09-29T05:11:55.201Z,102495.67
2017-09-29T05:14:23.671Z,102489.65
2017-09-29T05:16:52.117Z,102482.76
2017-09-29T05:19:20.582Z,102489.68
2017-09-29T05:21:49.026Z,102494.01
2017-09-29T05:24:17.526Z,102491.02
2017-09-29T05:26:45.965Z,102496.23
2017-09-29T05:29:15.313Z,102489.75
2017-09-29T05:31:43.762Z,102497.99
2017-09-29T05:34:12.210Z,102500.56
2017-09-29T05:36:40.677Z,102498.55
2017-09-29T05:39:09.117Z,102505.43
2017-09-29T05:41:37.621Z,102509.81
2017-09-29T05:44:06.058Z,102497.27
2017-09-29T05:46:35.290Z,102508.08
2017-09-29T05:49:03.752Z,102500.79
2017-09-29T05:51:32.258Z,102509.44
2017-09-29T05:54:00.713Z,102507.67
2017-09-29T05:56:29.946Z,102507.70
2017-09-29T05:58:58.420Z,102507.73
2017-09-29T06:01:26.893Z,102508.08
2017-09-29T06:03:55.386Z,102505.46
2017-09-29T06:06:23.973Z,102513.28
2017-09-29T06:08:53.173Z,102509.79
2017-09-29T06:11:21.613Z,102513.69
2017-09-29T06:13:50.850Z,102513.69
2017-09-29T06:16:19.337Z,102508.05
2017-09-29T06:18:47.812Z,102511.95
2017-09-29T06:21:16.259Z,102511.49
2017-09-29T06:23:45.598Z,102513.69
2017-09-29T06:26:14.086Z,102513.19
2017-09-29T06:28:42.554Z,102515.79
2017-09-29T06:31:11.001Z,102517.03
2017-09-29T06:33:40.325Z,102521.27
2017-09-29T06:36:08.769Z,102516.05
2017-09-29T06:38:37.317Z,102517.70
2017-09-29T06:41:05.795Z,102520.67
2017-09-29T06:43:34.277Z,102518.51
2017-09-29T06:46:02.760Z,102516.28
2017-09-29T06:48:31.245Z,102523.17
2017-09-29T06:50:59.724Z,102523.23
2017-09-29T06:53:28.207Z,102519.81
2017-09-29T06:55:56.669Z,102522.80
2017-09-29T06:58:25.113Z,102524.94
2017-09-29T07:00:53.582Z,102526.66
2017-09-29T07:03:22.854Z,102522.00
2017-09-29T07:05:51.430Z,102526.66
2017-09-29T07:08:19.873Z,102523.27
2017-09-29T07:10:49.121Z,102520.64
2017-09-29T07:13:17.566Z,102530.09
2017-09-29T07:15:46.897Z,102523.76
2017-09-29T07:18:15.345Z,102518.09
2017-09-29T07:20:44.681Z,102523.17
2017-09-29T07:23:13.130Z,102517.43
2017-09-29T07:25:44.070Z,102519.59
2017-09-29T07:28:17.645Z,102519.59
2017-09-29T07:30:48.582Z,102520.02
2017-09-29T07:33:17.024Z,102516.59
2017-09-29T07:35:45.610Z,102521.83
2017-09-29T07:38:14.049Z,102520.89
2017-09-29T07:40:43.286Z,102529.13
2017-09-29T07:43:11.734Z,102526.56
2017-09-29T07:45:40.994Z,102529.39
2017-09-29T07:48:09.554Z,102524.27
2017-09-29T07:50:38.002Z,102522.38
2017-09-29T07:53:07.329Z,102521.98
2017-09-29T07:55:35.769Z,102519.30
2017-09-29T07:58:05.115Z,102522.69
2017-09-29T08:00:33.553Z,102523.45
2017-09-29T08:03:02.790Z,102523.28
2017-09-29T08:05:31.237Z,102527.36
2017-09-29T08:08:00.581Z,102524.14
2017-09-29T08:10:29.171Z,102526.13
2017-09-29T08:12:57.652Z,102518.19
2017-09-29T08:15:26.133Z,102512.97
2017-09-29T08:17:54.598Z,102506.64
2017-09-29T08:20:23.049Z,102505.58
2017-09-29T08:22:52.287Z,102514.42
2017-09-29T08:25:20.740Z,102507.59
2017-09-29T08:27:49.982Z,102512.20
2017-09-29T08:30:18.421Z,102505.97
2017-09-29T08:32:47.658Z,102499.75
2017-09-29T08:35:16.097Z,102500.47
2017-09-29T08:37:45.338Z,102492.38
2017-09-29T08:40:13.922Z,102497.95
2017-09-29T08:42:42.369Z,102495.48
2017-09-29T08:45:11.698Z,102497.95
2017-09-29T08:47:40.137Z,102493.99
2017-09-29T08:50:09.372Z,102490.77
2017-09-29T08:52:37.814Z,102490.39
2017-09-29T08:55:06.282Z,102495.28
2017-09-29T08:57:34.853Z,102487.52
2017-09-29T09:00:03.417Z,102486.83
2017-09-29T09:02:31.902Z,102480.92
2017-09-29T09:05:00.483Z,102486.19
2017-09-29T09:07:28.930Z,102483.13
2017-09-29T09:09:58.268Z,102484.36
2017-09-29T09:12:26.713Z,102488.81
2017-09-29T09:14:55.929Z,102480.23
2017-09-29T09:17:24.431Z,102475.04
2017-09-29T09:19:52.874Z,102473.70
2017-09-29T09:22:22.114Z,102467.86
2017-09-29T09:24:50.592Z,102471.91
2017-09-29T09:27:19.071Z,102470.48
2017-09-29T09:29:47.513Z,102474.25
2017-09-29T09:32:16.742Z,102467.75
2017-09-29T09:34:45.185Z,102471.66
2017-09-29T09:37:14.539Z,102472.16
2017-09-29T09:39:43.016Z,102464.77
2017-09-29T09:42:11.490Z,102469.38
2017-09-29T09:44:39.938Z,102468.67
2017-09-29T09:47:09.169Z,102462.09
2017-09-29T09:49:37.614Z,102467.37
2017-09-29T09:52:06.850Z,102461.22
2017-09-29T09:54:35.662Z,102462.73
2017-09-29T09:57:04.238Z,102466.48
2017-09-29T09:59:32.690Z,102466.31
2017-09-29T10:02:01.918Z,102464.80
2017-09-29T10:04:30.399Z,102463.09
2017-09-29T10:06:58.846Z,102455.33
2017-09-29T10:09:28.078Z,102457.95
2017-09-29T10:11:56.526Z,102457.94
2017-09-29T10:14:25.763Z,102451.29
2017-09-29T10:16:54.237Z,102449.61
2017-09-29T10:19:22.727Z,102442.92
2017-09-29T10:21:51.174Z,102436.16
2017-09-29T10:24:20.511Z,102420.77
2017-09-29T10:26:48.974Z,102424.20
2017-09-29T10:29:17.477Z,102424.00
2017-09-29T10:31:45.958Z,102416.36
2017-09-29T10:34:14.426Z,102418.19
2017-09-29T10:36:42.869Z,102418.33
2017-09-29T10:39:12.126Z,102415.59
2017-09-29T10:41:40.569Z,102414.11
2017-09-29T10:44:09.777Z,102410.11
2017-09-29T10:46:38.245Z,102404.79
2017-09-29T10:49:07.479Z,102408.95
2017-09-29T10:51:35.951Z,102404.59
2017-09-29T10:54:04.445Z,102414.40
2017-09-29T10:56:32.949Z,102403.69
2017-09-29T10:59:01.394Z,102405.22
2017-09-29T11:01:29.861Z,102404.19
2017-09-29T11:03:58.385Z,102406.34
2017-09-29T11:06:26.957Z,102403.94
2017-09-29T11:08:55.401Z,102403.16
2017-09-29T11:11:24.628Z,102403.29
2017-09-29T11:13:53.074Z,102400.60
2017-09-29T11:16:22.308Z,102395.32
2017-09-29T11:18:50.758Z,102396.20
2017-09-29T11:21:20.011Z,102391.97
2017-09-29T11:23:48.456Z,102389.31
2017-09-29T11:26:17.169Z,102388.23
2017-09-29T11:28:45.623Z,102381.32
2017-09-29T11:31:14.077Z,102383.78
2017-09-29T11:33:43.322Z,102381.25
2017-09-29T11:36:11.777Z,102373.26
2017-09-29T11:38:41.014Z,102372.44
2017-09-29T11:41:09.462Z,102370.02
2017-09-29T11:43:37.926Z,102371.52
2017-09-29T11:46:07.176Z,102359.25
2017-09-29T11:48:35.701Z,102360.58
2017-09-29T11:51:04.238Z,102359.05
2017-09-29T11:53:32.827Z,102356.08
2017-09-29T11:56:01.281Z,102357.72
2017-09-29T11:58:29.895Z,102351.17
2017-09-29T12:00:58.337Z,102347.55
2017-09-29T12:03:27.569Z,102344.19
2017-09-29T12:05:56.026Z,102348.53
2017-09-29T12:08:24.538Z,102344.09
2017-09-29T12:10:52.982Z,102340.47
2017-09-29T12:13:22.222Z,102340.52
2017-09-29T12:15:50.701Z,102340.09
2017-09-29T12:18:19.174Z,102338.99
2017-09-29T12:20:47.661Z,102344.69
2017-09-29T12:23:16.146Z,102342.47
2017-09-29T12:25:44.618Z,102340.88
2017-09-29T12:28:13.073Z,102348.55
2017-09-29T12:30:42.309Z,102340.80
2017-09-29T12:33:10.752Z,102336.92
2017-09-29T12:35:39.981Z,102334.91
2017-09-29T12:38:08.420Z,102331.15
2017-09-29T12:40:37.765Z,102335.70
2017-09-29T12:43:06.210Z,102337.03
2017-09-29T12:45:35.446Z,102325.54
2017-09-29T12:48:03.936Z,102326.85
2017-09-29T12:50:32.409Z,102326.88
2017-09-29T12:53:00.853Z,102324.90
2017-09-29T12:55:30.101Z,102322.27
2017-09-29T12:57:58.544Z,102326.94
2017-09-29T13:00:27.779Z,102324.41
2017-09-29T13:02:56.366Z,102325.21
2017-09-29T13:05:24.847Z,102331.46
2017-09-29T13:07:53.426Z,102326.02
2017-09-29T13:10:21.913Z,102318.48
2017-09-29T13:12:50.382Z,102322.91
2017-09-29T13:15:18.829Z,102321.37
2017-09-29T13:17:48.062Z,102322.56
2017-09-29T13:20:16.510Z,102317.31
2017-09-29T13:22:45.740Z,102319.76
2017-09-29T13:25:14.240Z,102316.66
2017-09-29T13:27:42.696Z,102311.29
2017-09-29T13:30:11.306Z,102310.83
2017-09-29T13:32:39.885Z,102312.52
2017-09-29T13:35:08.335Z,102306.69
2017-09-29T13:37:37.569Z,102311.79
2017-09-29T13:40:06.155Z,102306.19
2017-09-29T13:42:34.606Z,102303.39
2017-09-29T13:45:03.073Z,102297.31
2017-09-29T13:47:32.286Z,102305.28
2017-09-29T13:50:01.520Z,102298.63
2017-09-29T13:52:29.965Z,102305.27
2017-09-29T13:54:59.306Z,102295.45
2017-09-29T13:57:27.748Z,102292.77
2017-09-29T13:59:57.078Z,102290.28
2017-09-29T14:02:25.526Z,102292.37
2017-09-29T14:04:54.763Z,102291.23
2017-09-29T14:07:23.214Z,102288.60
2017-09-29T14:09:51.731Z,102292.92
2017-09-29T14:12:20.185Z,102289.97
2017-09-29T14:14:48.692Z,102289.95
2017-09-29T14:17:17.138Z,102285.27
2017-09-29T14:19:46.354Z,102286.88
2017-09-29T14:22:14.825Z,102276.80
2017-09-29T14:24:43.336Z,102273.70
2017-09-29T14:27:11.801Z,102275.20
2017-09-29T14:29:40.252Z,102271.76
2017-09-29T14:32:09.604Z,102267.37
2017-09-29T14:34:38.078Z,102276.31
2017-09-29T14:37:06.586Z,102272.16
2017-09-29T14:39:35.042Z,102275.16
2017-09-29T14:42:03.513Z,102270.56
2017-09-29T14:44:32.005Z,102269.16
2017-09-29T14:47:00.473Z,102275.45
2017-09-29T14:49:28.977Z,102273.54
2017-09-29T14:51:57.440Z,102274.28
2017-09-29T14:54:25.876Z,102269.56
2017-09-29T14:56:54.419Z,102276.92
2017-09-29T14:59:22.885Z,102272.36
2017-09-29T15:01:51.329Z,102284.50
2017-09-29T15:04:20.561Z,102279.25
2017-09-29T15:06:49.005Z,102277.30
2017-09-29T15:09:17.469Z,102271.24
2017-09-29T15:11:46.031Z,102265.33
2017-09-29T15:14:14.513Z,102268.91
2017-09-29T15:16:42.998Z,102268.41
2017-09-29T15:19:11.464Z,102265.95
2017-09-29T15:21:39.910Z,102265.55
2017-09-29T15:24:09.150Z,102268.43
2017-09-29T15:26:37.593Z,102264.28
2017-09-29T15:29:06.940Z,102268.64
2017-09-29T15:31:36.349Z,102274.75
2017-09-29T15:34:04.815Z,102274.00
2017-09-29T15:36:33.256Z,102279.76
2017-09-29T15:39:02.601Z,102272.95
2017-09-29T15:41:31.093Z,102280.54
2017-09-29T15:43:59.561Z,102282.03
2017-09-29T15:46:28.067Z,102286.53
2017-09-29T15:48:56.512Z,102282.48
2017-09-29T15:51:25.029Z,102284.84
2017-09-29T15:53:53.477Z,102296.53
2017-09-29T15:56:21.983Z,102287.98
2017-09-29T15:58:50.462Z,102285.12
2017-09-29T16:01:18.942Z,102284.16
2017-09-29T16:03:47.381Z,102289.38
2017-09-29T16:06:16.608Z,102290.98
2017-09-29T16:08:45.109Z,102289.39
2017-09-29T16:11:13.577Z,102293.72
2017-09-29T16:13:42.074Z,102295.91
2017-09-29T16:16:10.536Z,102299.39
2017-09-29T16:18:38.982Z,102306.61
2017-09-29T16:21:07.445Z,102310.70
2017-09-29T16:23:35.889Z,102313.88
2017-09-29T16:26:04.380Z,102315.89
2017-09-29T16:28:32.858Z,102313.88
2017-09-29T16:31:01.305Z,102316.77
2017-09-29T16:33:30.539Z,102316.19
2017-09-29T16:35:59.022Z,102314.15
2017-09-29T16:38:27.509Z,102307.41
2017-09-29T16:40:55.957Z,102309.45
2017-09-29T16:43:25.285Z,102306.50
2017-09-29T16:45:53.725Z,102308.86
2017-09-29T16:48:23.062Z,102314.48
2017-09-29T16:50:51.505Z,102315.92
2017-09-29T16:53:20.741Z,102325.20
2017-09-29T16:55:49.194Z,102323.73
2017-09-29T16:58:18.533Z,102329.53
2017-09-29T17:00:46.982Z,102328.44
2017-09-29T17:03:16.426Z,102334.19
2017-09-29T17:05:44.868Z,102337.80
2017-09-29T17:08:14.156Z,102346.42
2017-09-29T17:10:43.389Z,102352.09
2017-09-29T17:13:11.833Z,102351.67
2017-09-29T17:15:40.302Z,102358.91
2017-09-29T17:18:08.852Z,102350.78
2017-09-29T17:20:37.437Z,102343.34
2017-09-29T17:23:05.923Z,102353.02
2017-09-29T17:25:34.386Z,102356.94
2017-09-29T17:28:02.877Z,102354.75
2017-09-29T17:30:31.353Z,102357.95
2017-09-29T17:32:59.801Z,102360.18
2017-09-29T17:35:29.029Z,102355.55
2017-09-29T17:37:57.479Z,102354.97
2017-09-29T17:40:26.705Z,102354.30
2017-09-29T17:42:55.208Z,102355.28
2017-09-29T17:45:23.697Z,102359.01
2017-09-29T17:47:52.172Z,102369.20
2017-09-29T17:50:20.621Z,102367.52
2017-09-29T17:52:49.852Z,102368.06
2017-09-29T17:55:18.337Z,102365.08
2017-09-29T17:57:47.023Z,102362.41
2017-09-29T18:00:15.504Z,102365.45
2017-09-29T18:02:43.970Z,102368.48
2017-09-29T18:05:12.479Z,102364.58
2017-09-29T18:07:41.047Z,102361.99
2017-09-29T18:10:09.534Z,102361.55
2017-09-29T18:12:38.017Z,102363.30
2017-09-29T18:15:07.216Z,102372.51
2017-09-29T18:17:35.686Z,102368.67
2017-09-29T18:20:04.129Z,102370.46
2017-09-29T18:22:33.362Z,102359.63
2017-09-29T18:25:01.801Z,102360.98
2017-09-29T18:27:30.270Z,102367.12
2017-09-29T18:29:58.713Z,102367.12
2017-09-29T18:32:27.153Z,102365.87
2017-09-29T18:34:56.390Z,102361.59
2017-09-29T18:37:24.885Z,102365.55
2017-09-29T18:39:53.354Z,102360.02
2017-09-29T18:42:21.852Z,102356.23
2017-09-29T18:47:56.080Z,102348.16
2017-09-29T18:50:24.558Z,102352.17
2017-09-29T18:52:53.002Z,102345.77
2017-09-29T18:55:22.229Z,102347.08
2017-09-29T18:57:50.677Z,102347.56
2017-09-29T19:00:20.027Z,102351.14
2017-09-29T19:02:48.509Z,102348.12
2017-09-29T19:05:17.104Z,102344.31
2017-09-29T19:07:45.550Z,102346.91
2017-09-29T19:10:14.789Z,102345.23
2017-09-29T19:12:43.238Z,102342.68
2017-09-29T19:15:11.730Z,102344.52
2017-09-29T19:17:40.198Z,102336.39
2017-09-29T19:20:08.642Z,102335.14
2017-09-29T19:22:37.109Z,102333.83
2017-09-29T19:25:05.549Z,102334.36
2017-09-29T19:27:34.054Z,102330.08
2017-09-29T19:30:02.535Z,102333.55
2017-09-29T19:32:31.034Z,102330.55
2017-09-29T19:34:59.499Z,102330.12
2017-09-29T19:37:28.081Z,102332.29
2017-09-29T19:39:56.564Z,102335.84
2017-09-29T19:42:25.153Z,102335.45
2017-09-29T19:44:53.599Z,102330.75
2017-09-29T19:47:22.833Z,102327.80
2017-09-29T19:49:51.273Z,102325.68
2017-09-29T19:52:20.511Z,102322.26
2017-09-29T19:54:48.994Z,102319.70
2017-09-29T19:57:17.481Z,102320.62
2017-09-29T19:59:45.925Z,102323.70
2017-09-29T20:02:15.137Z,102316.34
2017-09-29T20:04:45.178Z,102323.73
2017-09-29T20:07:13.618Z,102312.45
2017-09-29T20:09:42.849Z,102312.92
2017-09-29T20:12:11.338Z,102310.80
2017-09-29T20:14:39.911Z,102323.38
2017-09-29T20:17:08.357Z,102314.34
2017-09-29T20:19:37.685Z,102318.70
2017-09-29T20:22:06.186Z,102317.84
2017-09-29T20:24:34.649Z,102318.80
2017-09-29T20:27:03.085Z,102320.99
2017-09-29T20:29:31.626Z,102317.97
2017-09-29T20:32:00.113Z,102311.98
2017-09-29T20:34:28.581Z,102314.58
2017-09-29T20:36:57.021Z,102309.44
2017-09-29T20:39:25.477Z,102311.13
2017-09-29T20:41:53.950Z,102308.61
2017-09-29T20:44:22.396Z,102306.88
2017-09-29T20:46:50.870Z,102297.41
2017-09-29T20:49:20.077Z,102301.34
2017-09-29T20:51:48.550Z,102303.11
2017-09-29T20:54:17.762Z,102298.35
2017-09-29T20:56:46.259Z,102299.72
2017-09-29T20:59:14.709Z,102305.81
2017-09-29T21:01:43.945Z,102305.42
2017-09-29T21:04:12.393Z,102301.13
2017-09-29T21:06:41.723Z,102299.87
2017-09-29T21:09:10.205Z,102294.72
2017-09-29T21:11:38.669Z,102294.35
2017-09-29T21:14:07.124Z,102291.36
2017-09-29T21:16:36.357Z,102286.22
2017-09-29T21:19:04.797Z,102290.97
2017-09-29T21:21:33.333Z,102282.79
2017-09-29T21:24:01.805Z,102285.81
2017-09-29T21:26:30.261Z,102282.39
2017-09-29T21:28:59.488Z,102281.56
2017-09-29T21:31:27.934Z,102287.17
2017-09-29T21:33:57.169Z,102288.11
2017-09-29T21:36:25.612Z,102282.09
2017-09-29T21:38:54.844Z,102278.67
2017-09-29T21:41:23.289Z,102266.60
2017-09-29T21:43:51.762Z,102265.73
2017-09-29T21:46:20.964Z,102262.75
2017-09-29T21:48:49.437Z,102259.32
2017-09-29T21:51:17.888Z,102260.66
2017-09-29T21:53:46.474Z,102255.47
2017-09-29T21:56:14.955Z,102251.17
2017-09-29T21:58:43.421Z,102243.87
2017-09-29T22:01:11.919Z,102248.65
2017-09-29T22:03:40.506Z,102247.78
2017-09-29T22:06:08.945Z,102246.95
2017-09-29T22:08:38.157Z,102235.73
2017-09-29T22:11:06.626Z,102237.08
2017-09-29T22:13:35.841Z,102232.33
2017-09-29T22:16:04.309Z,102236.65
2017-09-29T22:18:33.545Z,102229.37
2017-09-29T22:21:02.126Z,102228.94
2017-09-29T22:23:30.569Z,102229.86
2017-09-29T22:25:59.913Z,102238.49
2017-09-29T22:28:28.888Z,102236.82
2017-09-29T22:30:57.388Z,102232.08
2017-09-29T22:33:25.866Z,102229.91
2017-09-29T22:35:54.353Z,102235.61
2017-09-29T22:38:22.830Z,102233.88
2017-09-29T22:40:51.317Z,102230.89
2017-09-29T22:43:19.794Z,102237.81
2017-09-29T22:45:48.241Z,102229.67
2017-09-29T22:48:17.479Z,102227.51
2017-09-29T22:50:45.930Z,102232.72
2017-09-29T22:53:15.257Z,102230.16
2017-09-29T22:55:43.746Z,102229.72
2017-09-29T22:58:12.218Z,102225.86
2017-09-29T23:00:40.678Z,102224.61
2017-09-29T23:03:09.907Z,102220.72
2017-09-29T23:05:38.353Z,102222.06
2017-09-29T23:08:07.674Z,102220.34
2017-09-29T23:10:36.172Z,102216.91
2017-09-29T23:13:04.646Z,102216.91
2017-09-29T23:15:33.140Z,102211.78
2017-09-29T23:18:01.601Z,102209.21
2017-09-29T23:20:30.045Z,102204.92
2017-09-29T23:22:58.584Z,102214.48
2017-09-29T23:25:27.029Z,102207.14
2017-09-29T23:27:56.242Z,102208.89
2017-09-29T23:30:24.705Z,102204.55
2017-09-29T23:32:53.913Z,102200.28
2017-09-29T23:35:23.246Z,102197.27
2017-09-29T23:37:51.724Z,102196.00
2017-09-29T23:40:20.198Z,102196.42
2017-09-29T23:42:48.693Z,102196.45
2017-09-29T23:45:17.278Z,102193.43
2017-09-29T23:47:45.725Z,102189.59
2017-09-29T23:50:14.962Z,102189.61
2017-09-29T23:52:43.434Z,102193.91
2017-09-29T23:55:11.911Z,102192.23
2017-09-29T23:57:40.404Z,102187.47
